Time;durP1;ratioP1;P1;durP2;ratioP2;P2;SDS_P1;SDS_P2;PMS_P1;PMS_P2;Temp;Humidity;BMP_temperature;BMP_pressure;BME280_temperature;BME280_humidity;BME280_pressure;Samples;Min_cycle;Max_cycle;Signal;HPM_P1;HPM_P2
2023/04/14 00:01:33;;;;;;;6.23;3.17;;;;;;;3.37;100.00;99393.44;4999600;28;20241;-69
2023/04/14 00:03:59;;;;;;;9.90;3.73;;;;;;;3.35;100.00;99384.19;4998183;28;20175;-68
2023/04/14 00:06:26;;;;;;;5.27;3.70;;;;;;;3.35;100.00;99386.72;5000515;28;20550;-69
2023/04/14 00:08:51;;;;;;;7.43;3.73;;;;;;;3.30;100.00;99380.97;5022919;28;20284;-68
2023/04/14 00:11:17;;;;;;;5.27;4.00;;;;;;;3.17;100.00;99388.22;4994774;28;20226;-69
2023/04/14 00:13:42;;;;;;;5.53;4.10;;;;;;;3.11;100.00;99391.78;5015129;28;20207;-70
2023/04/14 00:16:07;;;;;;;7.90;4.27;;;;;;;3.10;100.00;99399.47;5012700;28;20616;-71
2023/04/14 00:18:32;;;;;;;5.83;3.80;;;;;;;3.01;100.00;99395.56;5007535;28;20212;-68
2023/04/14 00:20:58;;;;;;;8.97;5.83;;;;;;;3.01;100.00;99405.72;5004855;28;20676;-70
2023/04/14 00:23:23;;;;;;;13.83;7.60;;;;;;;3.02;100.00;99397.22;5010588;28;20206;-69
2023/04/14 00:25:49;;;;;;;9.37;5.10;;;;;;;2.99;100.00;99398.16;5011859;28;20677;-68
2023/04/14 00:28:14;;;;;;;10.10;4.40;;;;;;;2.95;100.00;99399.13;5025952;28;20187;-73
2023/04/14 00:30:40;;;;;;;7.10;3.80;;;;;;;2.89;100.00;99396.78;5009566;28;20229;-72
2023/04/14 00:33:05;;;;;;;7.90;3.93;;;;;;;2.90;100.00;99406.94;5011211;28;20293;-73
2023/04/14 00:35:31;;;;;;;7.53;4.07;;;;;;;2.83;100.00;99399.53;5004197;28;20283;-72
2023/04/14 00:37:57;;;;;;;4.60;3.70;;;;;;;2.71;100.00;99396.53;5026111;28;20645;-72
2023/04/14 00:40:23;;;;;;;7.87;4.87;;;;;;;2.74;100.00;99406.59;5014975;28;20603;-71
2023/04/14 00:42:48;;;;;;;6.63;4.73;;;;;;;2.78;100.00;99401.41;5008530;28;20239;-74
2023/04/14 00:45:14;;;;;;;6.13;4.10;;;;;;;2.84;100.00;99399.50;5027367;28;20201;-73
2023/04/14 00:47:41;;;;;;;11.27;4.67;;;;;;;2.78;100.00;99407.34;5014239;28;20186;-73
2023/04/14 00:50:08;;;;;;;5.63;4.10;;;;;;;2.72;100.00;99408.34;5006719;28;20272;-71
2023/04/14 00:52:36;;;;;;;8.40;5.03;;;;;;;2.53;100.00;99405.59;5024145;28;20199;-68
2023/04/14 00:55:03;;;;;;;6.23;4.17;;;;;;;2.49;100.00;99413.38;5025393;28;20190;-72
2023/04/14 00:57:29;;;;;;;8.70;4.60;;;;;;;2.36;100.00;99411.22;5015681;28;20191;-72
2023/04/14 00:59:56;;;;;;;9.30;4.60;;;;;;;2.27;100.00;99416.59;5014108;28;20183;-72
2023/04/14 01:02:22;;;;;;;8.80;4.30;;;;;;;2.24;100.00;99409.88;4997452;28;20232;-74
2023/04/14 01:04:48;;;;;;;9.40;4.40;;;;;;;2.30;100.00;99408.88;5013181;28;20216;-72
2023/04/14 01:07:14;;;;;;;7.77;4.53;;;;;;;2.38;100.00;99406.09;5020532;28;20185;-73
2023/04/14 01:09:39;;;;;;;6.17;4.43;;;;;;;2.41;100.00;99403.47;5032073;28;20197;-73
2023/04/14 01:12:19;;;;;;;9.57;4.40;;;;;;;2.38;100.00;99399.31;5011024;28;20261;-73
2023/04/14 01:15:16;;;;;;;7.70;5.00;;;;;;;2.33;100.00;99396.09;5015133;28;20229;-73
2023/04/14 01:17:52;;;;;;;7.23;4.77;;;;;;;2.33;100.00;99393.56;5016675;28;20273;-73
2023/04/14 01:20:31;;;;;;;7.10;5.00;;;;;;;2.33;100.00;99391.03;5008282;28;20213;-73
2023/04/14 01:23:10;;;;;;;7.97;4.73;;;;;;;2.30;100.00;99388.56;5015239;28;20280;-73
2023/04/14 01:25:57;;;;;;;8.10;5.23;;;;;;;2.29;100.00;99388.63;5012798;28;20189;-73
2023/04/14 01:29:01;;;;;;;8.57;4.70;;;;;;;2.20;100.00;99395.63;5031589;28;20177;-73
2023/04/14 01:31:31;;;;;;;12.83;5.47;;;;;;;1.98;100.00;99394.66;5008685;28;20232;-73
2023/04/14 01:34:05;;;;;;;10.47;5.67;;;;;;;1.85;100.00;99399.25;5028607;28;20194;-74
2023/04/14 01:36:41;;;;;;;8.50;5.60;;;;;;;1.81;100.00;99396.00;5031007;28;20261;-73
2023/04/14 01:39:09;;;;;;;10.03;5.37;;;;;;;1.98;100.00;99397.19;5031784;28;20184;-73
2023/04/14 01:41:41;;;;;;;8.30;5.33;;;;;;;2.01;100.00;99394.53;5002921;28;20226;-72
2023/04/14 01:44:08;;;;;;;14.93;5.70;;;;;;;2.07;100.00;99397.75;5021224;28;20247;-72
2023/04/14 01:46:35;;;;;;;10.00;5.50;;;;;;;2.10;100.00;99391.75;5021463;28;20185;-73
2023/04/14 01:49:01;;;;;;;9.57;5.73;;;;;;;2.04;100.00;99397.81;5043442;28;20232;-75
2023/04/14 01:51:31;;;;;;;10.27;5.57;;;;;;;1.93;100.00;99395.63;5020954;28;20294;-74
2023/04/14 01:54:00;;;;;;;9.37;5.67;;;;;;;2.08;100.00;99411.25;5032138;28;20174;-75
2023/04/14 01:56:26;;;;;;;9.27;6.47;;;;;;;2.01;100.00;99413.16;5030711;28;20200;-72
2023/04/14 01:58:55;;;;;;;14.97;11.40;;;;;;;2.00;100.00;99418.25;5028653;28;20186;-73
2023/04/14 02:01:21;;;;;;;15.80;11.13;;;;;;;1.97;100.00;99418.34;5002166;28;20246;-74
2023/04/14 02:03:48;;;;;;;11.00;7.37;;;;;;;1.89;100.00;99423.66;5001582;28;20181;-73
2023/04/14 02:06:15;;;;;;;11.03;6.23;;;;;;;1.94;100.00;99426.88;5010251;28;20216;-73
2023/04/14 02:08:41;;;;;;;9.40;6.63;;;;;;;1.84;100.00;99423.78;5004469;28;20944;-77
2023/04/14 02:11:08;;;;;;;9.17;6.40;;;;;;;1.72;100.00;99422.44;4995927;28;20306;-75
2023/04/14 02:13:34;;;;;;;11.17;6.47;;;;;;;1.61;100.00;99427.84;5031354;28;20202;-73
2023/04/14 02:16:01;;;;;;;10.13;7.10;;;;;;;1.66;100.00;99417.53;5021782;28;20193;-73
2023/04/14 02:18:30;;;;;;;8.87;7.30;;;;;;;1.74;100.00;99420.69;5021726;28;20600;-75
2023/04/14 02:20:58;;;;;;;11.30;7.17;;;;;;;1.80;100.00;99432.38;5013123;28;20256;-73
2023/04/14 02:23:23;;;;;;;10.80;7.17;;;;;;;1.80;100.00;99429.00;5028777;28;20189;-73
2023/04/14 02:25:54;;;;;;;10.13;6.93;;;;;;;1.80;100.00;99429.00;5028459;28;20185;-72
2023/04/14 02:28:26;;;;;;;9.17;6.43;;;;;;;1.76;100.00;99429.09;5013568;28;20205;-74
2023/04/14 02:30:54;;;;;;;8.67;6.77;;;;;;;1.82;100.00;99429.78;5020957;28;20237;-73
2023/04/14 02:33:22;;;;;;;8.70;6.30;;;;;;;1.72;100.00;99435.09;5012299;28;20269;-72
2023/04/14 02:39:22;;;;;;;11.97;6.63;;;;;;;1.65;100.00;99441.25;5006532;28;20239;-73
2023/04/14 02:41:57;;;;;;;10.57;6.10;;;;;;;1.56;100.00;99442.34;5016718;28;20683;-73
2023/04/14 02:44:27;;;;;;;17.10;7.00;;;;;;;1.59;100.00;99451.56;5028418;28;20184;-73
2023/04/14 02:47:08;;;;;;;10.20;6.37;;;;;;;1.51;100.00;99456.81;5037077;28;20196;-74
2023/04/14 02:49:36;;;;;;;8.40;5.93;;;;;;;1.54;100.00;99445.78;5011111;28;20227;-73
2023/04/14 02:52:09;;;;;;;9.03;6.70;;;;;;;1.51;100.00;99456.00;5021276;28;20237;-75
2023/04/14 02:54:37;;;;;;;10.53;6.53;;;;;;;1.59;100.00;99449.84;5024868;28;20250;-74
2023/04/14 02:57:03;;;;;;;9.20;7.20;;;;;;;1.60;100.00;99459.13;5041314;28;20189;-74
2023/04/14 02:59:30;;;;;;;11.23;7.13;;;;;;;1.64;100.00;99456.50;5012423;28;20238;-74
2023/04/14 03:02:03;;;;;;;11.00;7.73;;;;;;;1.66;100.00;99457.28;5006812;28;20286;-72
2023/04/14 03:04:34;;;;;;;11.27;8.50;;;;;;;1.63;100.00;99462.47;5024244;28;20496;-73
2023/04/14 03:07:04;;;;;;;10.50;8.27;;;;;;;1.48;100.00;99462.00;5012833;28;20209;-73
2023/04/14 03:09:30;;;;;;;11.30;7.50;;;;;;;1.36;100.00;99462.34;5017029;28;20640;-73
2023/04/14 03:11:57;;;;;;;10.03;7.67;;;;;;;1.50;100.00;99462.78;5008123;28;20663;-73
2023/04/14 03:14:22;;;;;;;11.73;7.73;;;;;;;1.49;100.00;99458.59;5015942;28;20632;-74
2023/04/14 03:16:50;;;;;;;10.53;8.07;;;;;;;1.51;100.00;99458.53;5011532;28;20289;-74
2023/04/14 03:19:19;;;;;;;11.90;8.07;;;;;;;1.48;100.00;99461.16;5020427;28;20197;-73
2023/04/14 03:21:45;;;;;;;15.13;7.90;;;;;;;1.50;100.00;99465.34;5020532;28;20577;-74
2023/04/14 03:24:14;;;;;;;11.00;7.63;;;;;;;1.48;100.00;99463.69;5030574;28;20263;-73
2023/04/14 03:26:42;;;;;;;14.40;8.00;;;;;;;1.38;100.00;99458.06;5029981;28;20187;-73
2023/04/14 03:29:10;;;;;;;12.80;7.70;;;;;;;1.39;100.00;99458.00;5029977;28;20247;-74
2023/04/14 03:31:36;;;;;;;14.20;7.97;;;;;;;1.37;100.00;99459.75;4989680;28;20254;-74
2023/04/14 03:34:05;;;;;;;10.00;8.23;;;;;;;1.31;100.00;99449.78;5018914;28;20196;-77
2023/04/14 03:36:31;;;;;;;12.83;8.40;;;;;;;1.35;100.00;99455.59;5028309;28;20241;-74
2023/04/14 03:39:00;;;;;;;13.83;9.17;;;;;;;1.39;100.00;99450.41;5010256;28;20190;-75
2023/04/14 03:41:27;;;;;;;11.47;7.53;;;;;;;1.40;100.00;99449.53;5003817;28;20346;-74
2023/04/14 03:43:55;;;;;;;12.73;7.73;;;;;;;1.35;100.00;99448.81;5018727;28;20192;-75
2023/04/14 03:46:23;;;;;;;9.60;7.50;;;;;;;1.28;100.00;99440.56;5015340;28;20303;-78
2023/04/14 03:48:51;;;;;;;10.30;7.13;;;;;;;1.35;100.00;99443.75;5026666;28;20295;-74
2023/04/14 03:51:19;;;;;;;17.53;8.00;;;;;;;1.32;100.00;99453.16;5020027;28;20241;-75
2023/04/14 03:53:46;;;;;;;12.40;8.20;;;;;;;1.27;100.00;99448.22;5019908;28;20662;-74
2023/04/14 03:56:12;;;;;;;10.73;8.20;;;;;;;1.26;100.00;99449.88;5028390;28;20210;-75
2023/04/14 03:58:42;;;;;;;12.67;7.77;;;;;;;1.24;100.00;99450.81;5009426;28;20188;-75
2023/04/14 04:01:07;;;;;;;9.53;7.77;;;;;;;1.14;100.00;99445.16;5009240;28;20285;-74
2023/04/14 04:03:34;;;;;;;10.67;7.80;;;;;;;1.21;100.00;99441.59;5029883;28;20197;-73
2023/04/14 04:06:01;;;;;;;14.00;7.70;;;;;;;1.21;100.00;99451.72;5031465;28;20182;-74
2023/04/14 04:08:28;;;;;;;12.53;7.93;;;;;;;1.21;100.00;99454.25;5029253;28;20188;-72
2023/04/14 04:10:55;;;;;;;12.77;7.33;;;;;;;1.15;100.00;99449.34;5023853;28;20261;-73
2023/04/14 04:13:21;;;;;;;11.93;8.40;;;;;;;1.05;100.00;99453.81;5012156;28;20182;-74
2023/04/14 04:15:48;;;;;;;13.53;8.23;;;;;;;1.09;100.00;99449.50;5027955;28;20197;-75
2023/04/14 04:18:15;;;;;;;14.03;8.30;;;;;;;1.04;100.00;99453.88;5026522;28;20259;-75
2023/04/14 04:20:42;;;;;;;14.80;8.30;;;;;;;1.05;100.00;99453.81;5019647;28;20250;-74
2023/04/14 04:23:08;;;;;;;14.37;9.47;;;;;;;0.99;100.00;99455.69;5017534;28;20181;-75
2023/04/14 04:25:36;;;;;;;14.37;9.33;;;;;;;1.07;100.00;99453.81;5033151;28;20194;-76
2023/04/14 04:28:02;;;;;;;12.37;8.97;;;;;;;1.09;100.00;99462.16;4998387;28;20182;-74
2023/04/14 04:30:29;;;;;;;12.80;9.33;;;;;;;1.07;100.00;99462.22;5001939;28;20700;-74
2023/04/14 04:32:55;;;;;;;13.10;9.13;;;;;;;1.03;100.00;99470.78;5010056;28;20184;-74
2023/04/14 04:35:22;;;;;;;12.50;8.70;;;;;;;1.08;100.00;99468.09;5019821;28;20194;-74
2023/04/14 04:37:48;;;;;;;12.30;9.00;;;;;;;1.05;100.00;99470.72;5016544;28;20207;-74
2023/04/14 04:40:14;;;;;;;15.13;9.10;;;;;;;1.07;100.00;99474.88;5007974;28;20186;-74
2023/04/14 04:42:42;;;;;;;13.23;8.20;;;;;;;1.06;100.00;99475.75;5019603;28;20194;-74
2023/04/14 04:45:09;;;;;;;13.43;9.53;;;;;;;1.10;100.00;99477.34;5020355;28;20229;-75
2023/04/14 04:47:34;;;;;;;12.20;8.37;;;;;;;1.12;100.00;99479.84;5013074;28;20175;-72
2023/04/14 04:49:59;;;;;;;12.47;8.73;;;;;;;1.06;100.00;99477.47;5026301;28;20229;-74
2023/04/14 04:52:25;;;;;;;16.67;8.60;;;;;;;1.10;100.00;99479.03;5003615;28;20679;-73
2023/04/14 04:54:51;;;;;;;12.53;8.57;;;;;;;1.10;100.00;99479.03;5026615;28;20589;-74
2023/04/14 04:57:19;;;;;;;15.40;8.40;;;;;;;1.12;100.00;99478.13;5039706;28;20189;-74
2023/04/14 04:59:46;;;;;;;13.90;9.33;;;;;;;1.16;100.00;99475.53;5025923;28;20190;-75
2023/04/14 05:02:11;;;;;;;14.40;8.67;;;;;;;1.18;100.00;99481.38;5018045;28;20302;-74
2023/04/14 05:04:37;;;;;;;10.97;9.50;;;;;;;1.24;100.00;99484.59;5039517;28;20589;-76
2023/04/14 05:07:02;;;;;;;17.93;10.57;;;;;;;1.29;100.00;99482.75;5034885;28;20194;-74
2023/04/14 05:09:28;;;;;;;14.87;9.53;;;;;;;1.38;100.00;99481.69;5027453;28;20189;-74
2023/04/14 05:11:53;;;;;;;19.00;10.00;;;;;;;1.25;100.00;99485.41;4988280;28;20229;-74
2023/04/14 05:14:18;;;;;;;13.70;10.30;;;;;;;1.18;100.00;99491.50;5024706;28;20188;-74
2023/04/14 05:16:44;;;;;;;19.80;11.77;;;;;;;1.29;100.00;99492.91;5009857;28;20192;-75
2023/04/14 05:19:09;;;;;;;20.00;12.63;;;;;;;1.58;100.00;99493.81;5025941;28;20704;-74
2023/04/14 05:21:35;;;;;;;25.77;15.07;;;;;;;1.45;100.00;99497.56;5013530;28;20361;-73
2023/04/14 05:24:00;;;;;;;21.17;14.57;;;;;;;1.44;100.00;99498.44;5022719;28;20185;-74
2023/04/14 05:26:26;;;;;;;20.20;13.73;;;;;;;1.70;100.00;99499.41;5028485;28;20559;-75
2023/04/14 05:28:51;;;;;;;20.37;13.33;;;;;;;1.61;100.00;99492.91;5029426;28;20232;-75
2023/04/14 05:31:16;;;;;;;15.20;11.87;;;;;;;1.81;100.00;99501.66;5006208;28;20255;-74
2023/04/14 05:33:42;;;;;;;18.10;11.13;;;;;;;1.93;100.00;99507.25;5029143;28;20199;-74
2023/04/14 05:36:07;;;;;;;20.43;13.67;;;;;;;2.07;100.00;99501.75;5029317;28;20244;-74
2023/04/14 05:38:38;;;;;;;19.80;12.83;;;;;;;2.03;100.00;99502.72;5013196;28;20197;-74
2023/04/14 05:41:04;;;;;;;21.37;13.67;;;;;;;2.21;100.00;99505.59;5011925;28;20301;-73
2023/04/14 05:43:30;;;;;;;19.20;12.70;;;;;;;2.21;100.00;99503.88;5023003;28;20272;-75
2023/04/14 05:45:57;;;;;;;18.37;12.67;;;;;;;2.43;100.00;99505.75;5032436;28;20608;-73
2023/04/14 05:48:23;;;;;;;19.97;12.00;;;;;;;2.64;100.00;99506.84;5012906;28;20226;-74
2023/04/14 05:50:49;;;;;;;19.87;11.53;;;;;;;2.81;100.00;99503.75;5022050;28;20228;-74
2023/04/14 05:53:14;;;;;;;21.40;11.97;;;;;;;2.86;100.00;99501.06;5013249;28;20187;-73
2023/04/14 05:55:40;;;;;;;14.00;10.50;;;;;;;2.79;100.00;99502.97;5014876;28;20181;-72
2023/04/14 05:58:05;;;;;;;16.77;10.03;;;;;;;3.01;100.00;99508.16;5014765;28;20273;-73
2023/04/14 06:00:31;;;;;;;18.93;10.60;;;;;;;3.26;100.00;99509.06;5021710;28;20222;-73
2023/04/14 06:02:56;;;;;;;14.20;9.57;;;;;;;3.38;100.00;99504.38;5029983;28;20190;-73
2023/04/14 06:05:23;;;;;;;14.47;9.07;;;;;;;3.55;100.00;99503.00;5029250;28;20252;-74
2023/04/14 06:07:48;;;;;;;16.40;9.13;;;;;;;3.77;100.00;99502.22;5030176;28;20540;-74
2023/04/14 06:10:13;;;;;;;19.23;8.27;;;;;;;3.72;100.00;99500.69;5020936;28;20191;-73
2023/04/14 06:12:39;;;;;;;15.23;7.73;;;;;;;3.72;100.00;99492.19;5013003;28;20521;-76
2023/04/14 06:15:05;;;;;;;16.10;8.47;;;;;;;4.02;100.00;99487.72;5029487;28;20646;-74
2023/04/14 06:17:32;;;;;;;11.17;8.13;;;;;;;4.26;100.00;99486.84;5029605;28;20182;-74
2023/04/14 06:19:58;;;;;;;18.40;7.60;;;;;;;4.24;100.00;99492.00;5028733;28;20301;-75
2023/04/14 06:22:28;;;;;;;11.83;7.70;;;;;;;4.48;100.00;99485.13;5021691;28;20225;-74
2023/04/14 06:24:53;;;;;;;16.27;8.30;;;;;;;4.68;100.00;99480.97;5035186;28;20643;-74
2023/04/14 06:27:19;;;;;;;14.30;7.00;;;;;;;4.80;100.00;99479.63;5037213;28;20180;-74
2023/04/14 06:29:44;;;;;;;9.27;6.40;;;;;;;5.00;100.00;99477.09;5035249;28;20213;-75
2023/04/14 06:32:10;;;;;;;8.93;5.47;;;;;;;5.08;100.00;99470.84;5024236;28;20256;-75
2023/04/14 06:34:35;;;;;;;9.03;5.53;;;;;;;5.28;100.00;99477.66;5001393;28;20181;-72
2023/04/14 06:37:00;;;;;;;9.00;5.10;;;;;;;5.35;100.00;99476.50;5038093;28;20187;-73
2023/04/14 06:39:26;;;;;;;11.27;5.03;;;;;;;5.98;100.00;99472.91;5015856;28;20189;-72
2023/04/14 06:41:51;;;;;;;8.27;4.90;;;;;;;7.01;100.00;99468.91;5011524;28;20257;-73
2023/04/14 06:44:17;;;;;;;8.20;3.83;;;;;;;8.08;100.00;99467.63;5021316;28;20185;-73
2023/04/14 06:46:42;;;;;;;7.23;4.10;;;;;;;9.54;100.00;99467.09;5028067;28;20198;-73
2023/04/14 06:49:07;;;;;;;5.47;3.17;;;;;;;11.59;100.00;99462.59;5027688;28;20222;-73
2023/04/14 06:51:33;;;;;;;7.13;3.23;;;;;;;13.45;100.00;99462.16;5012024;28;20252;-73
2023/04/14 06:53:59;;;;;;;5.03;2.93;;;;;;;15.01;76.42;99468.69;5000323;28;20178;-72
2023/04/14 06:56:25;;;;;;;5.00;2.70;;;;;;;16.62;61.03;99454.88;5021871;28;20585;-73
2023/04/14 06:58:51;;;;;;;4.57;3.17;;;;;;;18.12;51.19;99457.59;5027734;28;20269;-74
2023/04/14 07:01:16;;;;;;;5.33;2.80;;;;;;;18.92;47.15;99457.59;4990773;28;20277;-72
2023/04/14 07:03:42;;;;;;;5.70;2.30;;;;;;;19.16;44.62;99467.38;5036938;28;20186;-74
2023/04/14 07:06:10;;;;;;;5.53;3.10;;;;;;;19.45;44.17;99471.41;5030780;28;20182;-74
2023/04/14 07:08:39;;;;;;;7.93;2.60;;;;;;;20.25;41.32;99466.72;5026774;28;20548;-74
2023/04/14 07:11:07;;;;;;;6.43;2.33;;;;;;;20.84;40.91;99468.38;5020177;28;20317;-74
2023/04/14 07:13:33;;;;;;;7.70;2.80;;;;;;;21.71;38.48;99465.00;5018603;28;20182;-75
2023/04/14 07:15:59;;;;;;;6.57;2.57;;;;;;;21.65;38.69;99465.69;5012935;28;20692;-74
2023/04/14 07:18:25;;;;;;;3.50;2.13;;;;;;;22.19;36.10;99473.53;5021303;28;20178;-74
2023/04/14 07:20:51;;;;;;;3.58;1.98;;;;;;;20.05;38.43;99477.47;5009652;28;20305;-74
2023/04/14 07:23:17;;;;;;;6.57;2.72;;;;;;;20.73;39.78;99472.16;5041788;28;20296;-74
2023/04/14 07:25:42;;;;;;;3.83;2.00;;;;;;;22.36;36.51;99462.94;5020158;28;20225;-75
2023/04/14 07:28:07;;;;;;;5.57;2.50;;;;;;;22.29;34.36;99465.47;5015769;28;20182;-75
2023/04/14 07:30:33;;;;;;;4.40;2.35;;;;;;;23.06;34.49;99476.75;5002771;28;20229;-76
2023/04/14 07:33:00;;;;;;;4.32;2.38;;;;;;;21.63;35.01;99473.69;5025609;28;20191;-77
2023/04/14 07:35:25;;;;;;;4.70;2.72;;;;;;;21.03;37.53;99464.59;5022522;28;20178;-74
2023/04/14 07:37:51;;;;;;;3.35;2.20;;;;;;;22.52;35.27;99468.06;5030037;28;20186;-75
2023/04/14 07:40:17;;;;;;;6.28;2.70;;;;;;;24.04;33.54;99468.69;5008402;28;20210;-75
2023/04/14 07:42:42;;;;;;;6.75;2.88;;;;;;;23.24;32.61;99483.47;5024374;28;20240;-77
2023/04/14 07:45:08;;;;;;;5.97;2.55;;;;;;;23.32;33.62;99478.94;5018005;28;20178;-74
2023/04/14 07:47:33;;;;;;;5.78;2.78;;;;;;;21.79;34.40;99485.88;5036674;28;20189;-73
2023/04/14 07:49:58;;;;;;;5.25;2.75;;;;;;;21.17;36.46;99484.78;5016508;28;20260;-74
2023/04/14 07:52:24;;;;;;;7.20;2.80;;;;;;;20.06;38.92;99467.88;5014547;28;20624;-75
2023/04/14 07:54:49;;;;;;;6.57;2.70;;;;;;;21.20;37.18;99474.00;5014162;28;20186;-67
2023/04/14 07:57:14;;;;;;;6.72;2.80;;;;;;;21.52;36.65;99474.88;5011999;28;20602;-67
2023/04/14 07:59:41;;;;;;;4.93;2.55;;;;;;;20.51;37.85;99478.84;5024201;28;20554;-67
2023/04/14 08:02:07;;;;;;;5.07;2.53;;;;;;;20.72;38.29;99467.91;5004426;28;20765;-66
2023/04/14 08:04:32;;;;;;;3.60;2.78;;;;;;;17.85;42.49;99478.28;5016254;28;20198;-67
2023/04/14 08:06:58;;;;;;;6.90;2.63;;;;;;;18.35;41.92;99477.00;5013958;28;20182;-67
2023/04/14 08:09:23;;;;;;;5.47;2.97;;;;;;;17.99;44.14;99465.78;5015804;28;20178;-66
2023/04/14 08:11:48;;;;;;;6.80;2.50;;;;;;;18.83;42.28;99472.34;5006235;28;20226;-67
2023/04/14 08:14:14;;;;;;;8.07;3.03;;;;;;;18.50;43.40;99466.88;5019338;28;20205;-68
2023/04/14 08:16:40;;;;;;;5.50;3.07;;;;;;;20.57;40.07;99460.69;5016917;28;20185;-69
2023/04/14 08:19:05;;;;;;;6.33;2.83;;;;;;;20.34;38.16;99467.56;5015723;28;20292;-67
2023/04/14 08:21:31;;;;;;;5.57;2.50;;;;;;;20.38;37.97;99468.84;5011713;28;20225;-68
2023/04/14 08:23:57;;;;;;;6.63;2.40;;;;;;;20.26;37.15;99458.72;5017143;28;20662;-68
2023/04/14 08:26:22;;;;;;;4.60;2.70;;;;;;;19.91;38.12;99463.25;5020615;28;20217;-68
2023/04/14 08:28:48;;;;;;;5.40;3.13;;;;;;;19.63;41.74;99460.06;5039154;28;20182;-69
2023/04/14 08:31:13;;;;;;;4.77;3.57;;;;;;;18.03;46.05;99461.91;5020932;28;20229;-68
2023/04/14 08:33:38;;;;;;;5.07;3.57;;;;;;;16.85;56.63;99461.56;5021072;28;20554;-69
2023/04/14 08:36:04;;;;;;;7.30;3.40;;;;;;;18.57;50.78;99461.91;5012438;28;20190;-67
2023/04/14 08:38:29;;;;;;;7.20;3.92;;;;;;;19.96;43.32;99460.97;5015620;28;20430;-76
2023/04/14 08:40:55;;;;;;;5.97;3.20;;;;;;;20.79;41.24;99454.00;5004767;28;20238;-73
2023/04/14 08:43:22;;;;;;;8.02;4.07;;;;;;;21.84;38.60;99454.78;5016451;28;20433;-73
2023/04/14 08:45:50;;;;;;;6.18;3.70;;;;;;;21.96;38.18;99449.97;5017861;28;20186;-74
2023/04/14 08:48:21;;;;;;;6.53;4.07;;;;;;;20.30;42.90;99454.00;5027003;28;20202;-72
2023/04/14 08:51:09;;;;;;;4.90;3.50;;;;;;;19.72;42.70;99453.06;5024140;28;20232;-73
2023/04/14 08:53:44;;;;;;;6.23;3.37;;;;;;;19.68;43.30;99455.16;5046590;28;20726;-73
2023/04/14 08:56:12;;;;;;;5.15;3.15;;;;;;;21.50;38.96;99445.44;5028772;28;20185;-72
2023/04/14 08:58:39;;;;;;;6.30;3.50;;;;;;;21.58;38.48;99444.63;5041604;28;20190;-72
2023/04/14 09:01:06;;;;;;;6.07;3.65;;;;;;;21.86;38.77;99442.34;5018295;28;20226;-71
2023/04/14 09:03:32;;;;;;;6.65;3.65;;;;;;;23.11;35.80;99447.31;5010786;28;20182;-72
2023/04/14 09:05:58;;;;;;;7.95;4.00;;;;;;;23.31;34.88;99458.94;5046057;28;20253;-75
2023/04/14 09:08:25;;;;;;;7.65;3.42;;;;;;;21.49;38.06;99443.81;5030063;28;20182;-75
2023/04/14 09:10:50;;;;;;;7.30;3.70;;;;;;;22.42;36.88;99448.34;5019204;28;20244;-74
2023/04/14 09:13:18;;;;;;;5.78;3.60;;;;;;;23.34;35.90;99440.22;4995809;28;20178;-73
2023/04/14 09:15:43;;;;;;;7.53;3.53;;;;;;;23.65;35.20;99439.16;5037383;28;20195;-75
2023/04/14 09:18:10;;;;;;;5.32;3.42;;;;;;;23.10;33.89;99443.91;5042914;28;20270;-75
2023/04/14 09:20:36;;;;;;;6.28;3.08;;;;;;;21.15;36.94;99437.09;5021767;28;20242;-72
2023/04/14 09:23:03;;;;;;;7.57;3.40;;;;;;;20.61;37.79;99429.81;5002227;28;20178;-73
2023/04/14 09:25:28;;;;;;;6.57;3.25;;;;;;;20.45;37.09;99435.88;5033256;28;20190;-72
2023/04/14 09:27:54;;;;;;;5.93;3.08;;;;;;;20.51;37.05;99435.22;5014922;28;20190;-73
2023/04/14 09:30:19;;;;;;;8.25;3.40;;;;;;;22.29;34.08;99428.78;5023258;28;20194;-72
2023/04/14 09:32:45;;;;;;;5.60;3.25;;;;;;;24.61;32.06;99426.66;4996050;28;20183;-72
2023/04/14 09:35:15;;;;;;;6.10;3.10;;;;;;;23.30;31.81;99422.41;5026560;28;20617;-73
2023/04/14 09:37:43;;;;;;;7.32;3.70;;;;;;;21.87;36.79;99420.41;5033879;28;20186;-73
2023/04/14 09:40:09;;;;;;;8.07;2.95;;;;;;;21.07;34.96;99424.03;5013300;28;20190;-75
2023/04/14 09:42:38;;;;;;;6.72;3.42;;;;;;;19.80;37.17;99419.97;4995984;28;20194;-73
2023/04/14 09:45:04;;;;;;;6.50;3.22;;;;;;;18.62;40.43;99423.19;5014513;28;20615;-71
2023/04/14 09:47:31;;;;;;;8.52;3.70;;;;;;;21.68;35.12;99416.44;5022401;28;20185;-71
2023/04/14 09:50:02;;;;;;;7.07;3.45;;;;;;;22.36;34.82;99419.22;5043775;28;20689;-70
2023/04/14 09:52:41;;;;;;;8.13;3.08;;;;;;;22.18;34.90;99418.72;5002112;28;20309;-74
2023/04/14 09:55:15;;;;;;;6.68;3.03;;;;;;;23.19;32.96;99419.22;5027821;28;20209;-70
2023/04/14 09:57:42;;;;;;;8.07;3.20;;;;;;;23.71;33.19;99416.59;5021696;28;20313;-71
2023/04/14 10:00:18;;;;;;;7.32;3.00;;;;;;;22.27;34.62;99419.47;5025990;28;20931;-72
2023/04/14 10:02:48;;;;;;;7.65;3.67;;;;;;;22.28;35.60;99414.03;5024319;28;20260;-72
2023/04/14 10:05:14;;;;;;;9.68;3.85;;;;;;;22.01;35.43;99403.13;5022068;28;20197;-72
2023/04/14 10:07:40;;;;;;;14.07;3.50;;;;;;;21.49;36.67;99409.78;5032783;28;20178;-72
2023/04/14 10:10:09;;;;;;;6.38;3.70;;;;;;;20.90;37.42;99397.94;5018540;28;20289;-72
2023/04/14 10:12:34;;;;;;;9.50;4.05;;;;;;;22.06;37.13;99399.97;5006867;28;20186;-73
2023/04/14 10:14:59;;;;;;;6.20;4.35;;;;;;;22.04;36.74;99391.47;5030688;28;20189;-72
2023/04/14 10:17:24;;;;;;;7.10;3.85;;;;;;;21.49;37.37;99394.09;5039030;28;20183;-71
2023/04/14 10:19:50;;;;;;;11.98;4.32;;;;;;;23.21;34.75;99390.19;5021387;28;20613;-70
2023/04/14 10:22:16;;;;;;;6.72;3.67;;;;;;;22.45;37.93;99391.19;5033453;28;20315;-71
2023/04/14 10:24:43;;;;;;;6.43;3.40;;;;;;;23.53;33.49;99383.69;5031019;28;20217;-73
2023/04/14 10:27:10;;;;;;;6.82;3.85;;;;;;;22.91;34.92;99390.22;5009500;28;20188;-72
2023/04/14 10:29:35;;;;;;;6.88;3.55;;;;;;;24.14;31.20;99384.28;5011261;28;20193;-70
2023/04/14 10:32:04;;;;;;;8.70;3.53;;;;;;;24.46;33.10;99382.06;5016883;28;20308;-70
2023/04/14 10:34:32;;;;;;;7.50;3.75;;;;;;;21.50;37.42;99387.88;5022180;28;20186;-70
2023/04/14 10:37:17;;;;;;;8.18;3.88;;;;;;;21.58;36.13;99382.66;5007902;28;20186;-71
2023/04/14 10:39:56;;;;;;;7.57;2.97;;;;;;;19.90;37.10;99385.13;5030354;28;20202;-72
2023/04/14 10:42:23;;;;;;;6.95;3.20;;;;;;;18.13;41.27;99386.38;4998843;28;20256;-72
2023/04/14 10:45:07;;;;;;;4.82;2.95;;;;;;;15.05;60.34;99381.19;5011651;28;20195;-72
2023/04/14 10:47:34;;;;;;;7.40;3.40;;;;;;;14.97;66.32;99378.44;5011918;28;20308;-70
2023/04/14 10:50:24;;;;;;;8.97;3.67;;;;;;;15.00;74.04;99376.41;5019490;28;20564;-71
2023/04/14 10:52:55;;;;;;;4.77;3.00;;;;;;;14.81;73.19;99371.13;4979860;28;20356;-71
2023/04/14 10:55:25;;;;;;;8.20;3.53;;;;;;;14.35;70.10;99371.41;5009685;28;20187;-71
2023/04/14 10:57:53;;;;;;;7.90;3.30;;;;;;;14.68;66.77;99366.16;5032412;28;20653;-71
2023/04/14 11:00:18;;;;;;;11.30;3.47;;;;;;;14.56;74.16;99369.75;4992985;28;20280;-71
2023/04/14 11:02:53;;;;;;;8.27;3.13;;;;;;;13.78;68.45;99367.41;5011566;28;20277;-70
2023/04/14 11:05:19;;;;;;;6.00;2.90;;;;;;;14.13;68.60;99367.16;5010938;28;20602;-71
2023/04/14 11:07:47;;;;;;;6.93;3.00;;;;;;;13.12;80.16;99368.19;5011386;28;20188;-70
2023/04/14 11:10:16;;;;;;;9.47;3.60;;;;;;;13.01;81.14;99358.69;5002986;28;20183;-72
2023/04/14 11:12:42;;;;;;;7.73;2.60;;;;;;;13.24;83.67;99355.16;5036108;28;20199;-70
2023/04/14 11:15:08;;;;;;;9.77;3.70;;;;;;;12.97;77.33;99352.13;4996907;28;20193;-71
2023/04/14 11:17:41;;;;;;;7.00;3.00;;;;;;;13.07;81.19;99346.13;5030784;28;20248;-71
2023/04/14 11:20:19;;;;;;;7.80;3.00;;;;;;;13.04;82.56;99345.56;5012983;28;20282;-70
2023/04/14 11:22:51;;;;;;;9.57;3.20;;;;;;;13.08;64.33;99334.03;5031533;28;20641;-71
2023/04/14 11:25:18;;;;;;;8.50;2.70;;;;;;;13.00;68.29;99339.81;5000683;28;20270;-70
2023/04/14 11:27:44;;;;;;;7.47;2.73;;;;;;;13.47;66.65;99337.06;5024659;28;20185;-71
2023/04/14 11:30:17;;;;;;;6.63;2.90;;;;;;;13.74;72.97;99335.81;4981720;28;20183;-72
2023/04/14 11:32:49;;;;;;;11.10;3.67;;;;;;;13.91;65.94;99328.47;5024146;28;20273;-72
2023/04/14 11:35:15;;;;;;;6.43;2.87;;;;;;;13.96;70.73;99323.75;5027400;28;20175;-71